Bao An Cheng 69 — BVBD5 — position and weather

sailwx.info

Track history (hours):
 
Tides and Currents Weather Stations Pressure Air Temp Water Temp Dewpoint Dewpoint Depression Visibility Wind Speed Wind Dir Waves Ship Positions

Bao An Cheng 69

Last reported at 2014-Jul-24 14:24 UTC. Time now 2014-Jul-24 15:24 UTC.
Position N 20°05' E 110°18'.

Length 121 m; draft 6 m.

MMSI: 412703090.

Date/timePositionNaut miles runAvg speedWind from/ knotsBaromVisibWave heightAir tempDewpointWater temp
2014-Jul-24 14:24N 20°05' E 110°18'0 0.1
2014-Jul-24 13:18N 20°05' E 110°18'0 0.0
2014-Jul-24 11:24N 20°05' E 110°18'0 0.0
2014-Jul-24 10:30N 20°05' E 110°18'0 0.0
2014-Jul-24 08:30N 20°05' E 110°18'0 0.0
2014-Jul-24 07:18N 20°05' E 110°18'0 0.0
2014-Jul-24 06:24N 20°05' E 110°18'0 0.0
2014-Jul-24 05:24N 20°05' E 110°18'0 0.1
2014-Jul-24 03:06N 20°05' E 110°17'0 0.0
2014-Jul-24 02:18N 20°05' E 110°17'0 0.0
2014-Jul-24 01:24N 20°05' E 110°17'0 0.1
2014-Jul-24 00:30N 20°05' E 110°17'  
2014-Jul-21 05:03N 20°05' E 110°17'0 0.0
2014-Jul-21 03:09N 20°05' E 110°17'0 0.0
2014-Jul-21 02:03N 20°05' E 110°17'0 0.0
2014-Jul-21 01:15N 20°05' E 110°17'0 0.0
2014-Jul-20 23:33N 20°05' E 110°17'0 0.0
2014-Jul-20 21:31N 20°05' E 110°17'0 0.0
2014-Jul-20 20:13N 20°05' E 110°17'0 0.0
2014-Jul-20 17:31N 20°05' E 110°17'0 0.0
2014-Jul-20 16:19N 20°05' E 110°17'0 0.0
2014-Jul-20 15:19N 20°05' E 110°17'0 0.0
2014-Jul-20 14:13N 20°05' E 110°17'0 0.0
2014-Jul-20 13:13N 20°05' E 110°17'0 0.0
2014-Jul-20 12:31N 20°05' E 110°17'0 0.0
2014-Jul-20 10:13N 20°05' E 110°17'0 0.1
2014-Jul-20 09:25N 20°05' E 110°17'0 0.1
2014-Jul-20 07:19N 20°05' E 110°18'0 0.5
2014-Jul-20 06:34N 20°05' E 110°17'6 6.2
2014-Jul-20 05:33N 20°11' E 110°16'9 9.4
2014-Jul-20 04:33N 20°13' E 110°26'167 9.7
2014-Jul-19 11:21N 21°34' E 113°02'11 9.2
2014-Jul-19 10:12N 21°40' E 113°12'7 9.5
2014-Jul-19 09:28N 21°44' E 113°18'13 9.4
2014-Jul-19 08:05N 21°52' E 113°29'5 9.9
2014-Jul-19 07:33N 21°54' E 113°34'6 6.0
2014-Jul-19 06:30N 21°58' E 113°40'0 0.1
2014-Jul-19 05:24N 21°58' E 113°40'0 0.0
2014-Jul-19 04:24N 21°58' E 113°40'0 0.1
2014-Jul-19 03:30N 21°58' E 113°40'0 0.0
2014-Jul-19 02:18N 21°58' E 113°40'2 2.7
2014-Jul-19 01:33N 21°58' E 113°38'2 1.9
2014-Jul-19 00:33N 21°56' E 113°37'1010.0
2014-Jul-18 23:33N 22°01' E 113°46'10 9.4
2014-Jul-18 22:30N 22°05' E 113°56'4 0.7
2014-Jul-18 16:25N 22°08' E 113°60'0 0.0
2014-Jul-18 14:25N 22°08' E 113°60'0 0.0
2014-Jul-17 23:09N 22°08' E 113°59'0 0.0
2014-Jul-17 17:03N 22°08' E 113°59'0 0.0
2014-Jul-17 14:27N 22°08' E 113°59'0 0.0
2014-Jul-16 18:26N 22°08' E 113°60'5 6.3
2014-Jul-16 17:33N 22°08' E 113°54'8 8.5
2014-Jul-16 16:33N 22°15' E 113°48'8 7.6
2014-Jul-16 15:33N 22°23' E 113°50'6 6.4
2014-Jul-16 14:33N 22°28' E 113°54'0 0.2
2014-Jul-16 13:30N 22°28' E 113°54'0 0.0
2014-Jul-16 12:30N 22°28' E 113°54'0 0.0
2014-Jul-16 11:30N 22°28' E 113°54'0 0.0
2014-Jul-16 10:30N 22°28' E 113°54'0 0.0
2014-Jul-16 09:24N 22°28' E 113°54'0 0.0
2014-Jul-16 08:21N 22°28' E 113°54'0 0.0
2014-Jul-16 07:33N 22°28' E 113°54'0 0.0
2014-Jul-16 06:28N 22°28' E 113°54'0 0.0
2014-Jul-16 05:31N 22°28' E 113°54'0 0.0
2014-Jul-16 04:28N 22°28' E 113°54'0 0.0
2014-Jul-16 03:33N 22°28' E 113°54'0 0.1
2014-Jul-16 02:33N 22°28' E 113°54'0 0.1
2014-Jul-16 01:33N 22°28' E 113°54'0 0.1
2014-Jul-16 00:33N 22°28' E 113°54'6 6.2
2014-Jul-15 23:33N 22°23' E 113°50'8 8.3
2014-Jul-15 22:33N 22°15' E 113°49'8 7.8
2014-Jul-15 21:33N 22°09' E 113°54'6 2.7
2014-Jul-15 19:17N 22°08' E 114°01'161 8.6
2014-Jul-15 00:32N 22°60' E 116°46'8010.0
2014-Jul-14 16:33N 23°49' E 117°54'9 8.6
2014-Jul-14 15:33N 23°55' E 118°02'8 8.1
2014-Jul-14 14:33N 24°00' E 118°08'  
Track history (hours):
 
Tides and Currents Weather Stations Pressure Air Temp Water Temp Dewpoint Dewpoint Depression Visibility Wind Speed Wind Dir Waves Ship Positions

Bao An Cheng 69

Last reported at 2014-Jul-24 14:24 UTC. Time now 2014-Jul-24 15:24 UTC.
Position N 20°05' E 110°18'.

Length 121 m; draft 6 m.

MMSI: 412703090.

Date/timePositionNaut miles runAvg speedWind from/ knotsBaromVisibWave heightAir tempDewpointWater temp
2014-Jul-24 14:24N 20°05' E 110°18'0 0.1
2014-Jul-24 13:18N 20°05' E 110°18'0 0.0
2014-Jul-24 11:24N 20°05' E 110°18'0 0.0
2014-Jul-24 10:30N 20°05' E 110°18'0 0.0
2014-Jul-24 08:30N 20°05' E 110°18'0 0.0
2014-Jul-24 07:18N 20°05' E 110°18'0 0.0
2014-Jul-24 06:24N 20°05' E 110°18'0 0.0
2014-Jul-24 05:24N 20°05' E 110°18'0 0.1
2014-Jul-24 03:06N 20°05' E 110°17'0 0.0
2014-Jul-24 02:18N 20°05' E 110°17'0 0.0
2014-Jul-24 01:24N 20°05' E 110°17'0 0.1
2014-Jul-24 00:30N 20°05' E 110°17'  
2014-Jul-21 05:03N 20°05' E 110°17'0 0.0
2014-Jul-21 03:09N 20°05' E 110°17'0 0.0
2014-Jul-21 02:03N 20°05' E 110°17'0 0.0
2014-Jul-21 01:15N 20°05' E 110°17'0 0.0
2014-Jul-20 23:33N 20°05' E 110°17'0 0.0
2014-Jul-20 21:31N 20°05' E 110°17'0 0.0
2014-Jul-20 20:13N 20°05' E 110°17'0 0.0
2014-Jul-20 17:31N 20°05' E 110°17'0 0.0
2014-Jul-20 16:19N 20°05' E 110°17'0 0.0
2014-Jul-20 15:19N 20°05' E 110°17'0 0.0
2014-Jul-20 14:13N 20°05' E 110°17'0 0.0
2014-Jul-20 13:13N 20°05' E 110°17'0 0.0
2014-Jul-20 12:31N 20°05' E 110°17'0 0.0
2014-Jul-20 10:13N 20°05' E 110°17'0 0.1
2014-Jul-20 09:25N 20°05' E 110°17'0 0.1
2014-Jul-20 07:19N 20°05' E 110°18'0 0.5
2014-Jul-20 06:34N 20°05' E 110°17'6 6.2
2014-Jul-20 05:33N 20°11' E 110°16'9 9.4
2014-Jul-20 04:33N 20°13' E 110°26'167 9.7
2014-Jul-19 11:21N 21°34' E 113°02'11 9.2
2014-Jul-19 10:12N 21°40' E 113°12'7 9.5
2014-Jul-19 09:28N 21°44' E 113°18'13 9.4
2014-Jul-19 08:05N 21°52' E 113°29'5 9.9
2014-Jul-19 07:33N 21°54' E 113°34'6 6.0
2014-Jul-19 06:30N 21°58' E 113°40'0 0.1
2014-Jul-19 05:24N 21°58' E 113°40'0 0.0
2014-Jul-19 04:24N 21°58' E 113°40'0 0.1
2014-Jul-19 03:30N 21°58' E 113°40'0 0.0
2014-Jul-19 02:18N 21°58' E 113°40'2 2.7
2014-Jul-19 01:33N 21°58' E 113°38'2 1.9
2014-Jul-19 00:33N 21°56' E 113°37'1010.0
2014-Jul-18 23:33N 22°01' E 113°46'10 9.4
2014-Jul-18 22:30N 22°05' E 113°56'4 0.7
2014-Jul-18 16:25N 22°08' E 113°60'0 0.0
2014-Jul-18 14:25N 22°08' E 113°60'0 0.0
2014-Jul-17 23:09N 22°08' E 113°59'0 0.0
2014-Jul-17 17:03N 22°08' E 113°59'0 0.0
2014-Jul-17 14:27N 22°08' E 113°59'0 0.0
2014-Jul-16 18:26N 22°08' E 113°60'5 6.3
2014-Jul-16 17:33N 22°08' E 113°54'8 8.5
2014-Jul-16 16:33N 22°15' E 113°48'8 7.6
2014-Jul-16 15:33N 22°23' E 113°50'6 6.4
2014-Jul-16 14:33N 22°28' E 113°54'0 0.2
2014-Jul-16 13:30N 22°28' E 113°54'0 0.0
2014-Jul-16 12:30N 22°28' E 113°54'0 0.0
2014-Jul-16 11:30N 22°28' E 113°54'0 0.0
2014-Jul-16 10:30N 22°28' E 113°54'0 0.0
2014-Jul-16 09:24N 22°28' E 113°54'0 0.0
2014-Jul-16 08:21N 22°28' E 113°54'0 0.0
2014-Jul-16 07:33N 22°28' E 113°54'0 0.0
2014-Jul-16 06:28N 22°28' E 113°54'0 0.0
2014-Jul-16 05:31N 22°28' E 113°54'0 0.0
2014-Jul-16 04:28N 22°28' E 113°54'0 0.0
2014-Jul-16 03:33N 22°28' E 113°54'0 0.1
2014-Jul-16 02:33N 22°28' E 113°54'0 0.1
2014-Jul-16 01:33N 22°28' E 113°54'0 0.1
2014-Jul-16 00:33N 22°28' E 113°54'6 6.2
2014-Jul-15 23:33N 22°23' E 113°50'8 8.3
2014-Jul-15 22:33N 22°15' E 113°49'8 7.8
2014-Jul-15 21:33N 22°09' E 113°54'6 2.7
2014-Jul-15 19:17N 22°08' E 114°01'161 8.6
2014-Jul-15 00:32N 22°60' E 116°46'8010.0
2014-Jul-14 16:33N 23°49' E 117°54'9 8.6
2014-Jul-14 15:33N 23°55' E 118°02'8 8.1
2014-Jul-14 14:33N 24°00' E 118°08'  

Dump ship's entire track history